createdAt,value
2023-04-15T00:01:19.375Z,99537.50
2023-04-15T00:03:48.638Z,99541.84
2023-04-15T00:06:16.746Z,99536.72
2023-04-15T00:08:44.929Z,99528.97
2023-04-15T00:11:13.055Z,99534.13
2023-04-15T00:13:41.166Z,99539.28
2023-04-15T00:16:10.820Z,99536.72
2023-04-15T00:18:40.129Z,99536.72
2023-04-15T00:21:08.089Z,99550.50
2023-04-15T00:23:36.596Z,99537.75
2023-04-15T00:26:04.539Z,99543.94
2023-04-15T00:28:32.383Z,99537.22
2023-04-15T00:31:00.545Z,99535.66
2023-04-15T00:33:28.479Z,99537.53
2023-04-15T00:35:57.715Z,99529.94
2023-04-15T00:38:25.658Z,99542.78
2023-04-15T00:40:53.918Z,99538.50
2023-04-15T00:43:21.949Z,99535.91
2023-04-15T00:45:51.562Z,99531.63
2023-04-15T00:48:20.164Z,99538.50
2023-04-15T00:50:48.752Z,99533.34
2023-04-15T00:53:18.319Z,99535.19
2023-04-15T00:55:47.817Z,99530.16
2023-04-15T00:58:16.183Z,99533.63
2023-04-15T01:00:44.667Z,99531.94
2023-04-15T01:03:12.866Z,99531.06
2023-04-15T01:05:41.445Z,99523.31
2023-04-15T01:08:09.860Z,99532.66
2023-04-15T01:10:39.534Z,99535.25
2023-04-15T01:13:07.363Z,99530.06
2023-04-15T01:15:37.329Z,99527.41
2023-04-15T01:18:05.756Z,99530.78
2023-04-15T01:20:34.101Z,99526.50
2023-04-15T01:23:02.489Z,99529.16
2023-04-15T01:25:34.409Z,99533.59
2023-04-15T01:28:02.415Z,99532.84
2023-04-15T01:30:30.606Z,99527.75
2023-04-15T01:32:58.601Z,99529.53
2023-04-15T01:35:27.237Z,99536.44
2023-04-15T01:37:55.834Z,99523.66
2023-04-15T01:40:23.844Z,99530.53
2023-04-15T01:42:53.049Z,99528.88
2023-04-15T01:45:21.216Z,99526.31
2023-04-15T01:47:49.406Z,99534.91
2023-04-15T01:50:17.335Z,99533.16
2023-04-15T01:52:45.268Z,99532.38
2023-04-15T01:55:14.070Z,99524.72
2023-04-15T01:57:42.334Z,99529.09
2023-04-15T02:00:12.806Z,99528.28
2023-04-15T02:02:40.828Z,99531.78
2023-04-15T02:05:09.635Z,99526.66
2023-04-15T02:07:37.989Z,99531.00
2023-04-15T02:10:06.503Z,99535.31
2023-04-15T02:12:34.355Z,99528.53
2023-04-15T02:15:02.180Z,99532.81
2023-04-15T02:17:31.714Z,99526.00
2023-04-15T02:19:59.809Z,99522.63
2023-04-15T02:22:27.961Z,99532.03
2023-04-15T02:24:55.956Z,99521.78
2023-04-15T02:27:24.040Z,99524.28
2023-04-15T02:29:52.333Z,99530.22
2023-04-15T02:32:20.926Z,99529.34
2023-04-15T02:34:52.810Z,99521.72
2023-04-15T02:37:21.177Z,99525.94
2023-04-15T02:39:49.218Z,99525.06
2023-04-15T02:42:17.234Z,99528.41
2023-04-15T02:44:45.340Z,99520.69
2023-04-15T02:47:14.426Z,99518.97
2023-04-15T02:49:42.421Z,99513.00
2023-04-15T02:52:11.635Z,99524.91
2023-04-15T02:54:39.442Z,99515.47
2023-04-15T02:57:11.786Z,99524.84
2023-04-15T02:59:39.790Z,99523.97
2023-04-15T03:03:03.031Z,99517.97
2023-04-15T03:05:31.580Z,99523.16
2023-04-15T03:08:01.295Z,99522.31
2023-04-15T03:10:29.725Z,99517.97
2023-04-15T03:12:57.611Z,99527.44
2023-04-15T03:15:25.540Z,99518.84
2023-04-15T03:17:53.522Z,99524.00
2023-04-15T03:20:21.707Z,99520.53
2023-04-15T03:22:49.769Z,99523.88
2023-04-15T03:25:19.274Z,99517.88
2023-04-15T03:27:47.231Z,99516.13
2023-04-15T03:30:15.336Z,99523.84
2023-04-15T03:32:43.278Z,99517.91
2023-04-15T03:35:11.269Z,99517.91
2023-04-15T03:37:39.146Z,99521.31
2023-04-15T03:40:08.854Z,99527.31
2023-04-15T03:42:38.223Z,99525.59
2023-04-15T03:45:07.684Z,99527.34
2023-04-15T03:47:35.620Z,99525.59
2023-04-15T03:50:03.739Z,99529.00
2023-04-15T03:52:31.626Z,99524.72
2023-04-15T03:54:59.525Z,99535.03
2023-04-15T03:57:27.611Z,99529.03
2023-04-15T03:59:56.817Z,99527.34
2023-04-15T04:02:24.876Z,99524.72
2023-04-15T04:04:52.989Z,99536.75
2023-04-15T04:07:20.880Z,99527.31
2023-04-15T04:09:48.747Z,99539.28
2023-04-15T04:12:16.825Z,99529.00
2023-04-15T04:14:44.754Z,99531.56
2023-04-15T04:17:13.975Z,99527.25
2023-04-15T04:19:41.886Z,99545.22
2023-04-15T04:22:09.710Z,99541.84
2023-04-15T04:24:37.580Z,99536.66
2023-04-15T04:27:05.660Z,99532.38
2023-04-15T04:29:33.494Z,99534.09
2023-04-15T04:32:01.386Z,99530.72
2023-04-15T04:34:30.707Z,99543.59
2023-04-15T04:36:58.530Z,99535.09
2023-04-15T04:39:26.408Z,99535.97
2023-04-15T04:41:54.436Z,99531.69
2023-04-15T04:44:25.260Z,99542.88
2023-04-15T04:46:53.271Z,99539.44
2023-04-15T04:49:21.201Z,99537.75
2023-04-15T04:51:50.959Z,99536.03
2023-04-15T04:54:18.750Z,99530.00
2023-04-15T04:56:46.604Z,99531.78
2023-04-15T04:59:14.428Z,99528.34
2023-04-15T05:01:42.883Z,99534.31
2023-04-15T05:04:11.053Z,99549.72
2023-04-15T05:06:42.296Z,99536.03
2023-04-15T05:09:11.543Z,99539.47
2023-04-15T05:11:39.406Z,99537.78
2023-04-15T05:14:07.636Z,99537.75
2023-04-15T05:16:35.409Z,99536.91
2023-04-15T05:19:03.347Z,99533.53
2023-04-15T05:21:31.781Z,99541.22
2023-04-15T05:23:59.573Z,99536.91
2023-04-15T05:26:29.100Z,99539.47
2023-04-15T05:28:56.917Z,99543.78
2023-04-15T05:31:24.826Z,99541.16
2023-04-15T05:33:52.724Z,99532.66
2023-04-15T05:36:21.121Z,99537.75
2023-04-15T05:38:49.029Z,99540.31
2023-04-15T05:41:19.709Z,99542.03
2023-04-15T05:43:49.161Z,99542.91
2023-04-15T05:46:17.079Z,99539.47
2023-04-15T05:48:45.012Z,99543.78
2023-04-15T05:51:12.894Z,99554.09
2023-04-15T05:53:41.607Z,99552.38
2023-04-15T05:56:09.730Z,99546.38
2023-04-15T05:58:37.688Z,99549.75
2023-04-15T06:01:07.478Z,99548.09
2023-04-15T06:03:35.806Z,99549.75
2023-04-15T06:06:03.808Z,99548.06
2023-04-15T06:08:31.812Z,99553.16
2023-04-15T06:11:00.369Z,99541.25
2023-04-15T06:13:28.288Z,99540.38
2023-04-15T06:15:56.154Z,99557.47
2023-04-15T06:18:25.461Z,99560.03
2023-04-15T06:20:53.391Z,99563.50
2023-04-15T06:23:21.498Z,99562.63
2023-04-15T06:25:49.496Z,99560.91
2023-04-15T06:28:17.491Z,99560.06
2023-04-15T06:30:45.459Z,99562.59
2023-04-15T06:33:13.409Z,99563.50
2023-04-15T06:35:42.677Z,99566.03
2023-04-15T06:38:10.616Z,99575.41
2023-04-15T06:40:38.622Z,99568.56
2023-04-15T06:43:06.485Z,99565.16
2023-04-15T06:45:34.415Z,99574.56
2023-04-15T06:48:02.420Z,99558.38
2023-04-15T06:50:30.294Z,99576.31
2023-04-15T06:52:59.553Z,99578.88
2023-04-15T06:55:27.545Z,99576.31
2023-04-15T06:57:55.558Z,99581.44
2023-04-15T07:00:23.544Z,99582.31
2023-04-15T07:02:52.099Z,99582.34
2023-04-15T07:05:20.284Z,99584.03
2023-04-15T07:07:48.233Z,99589.19
2023-04-15T07:10:17.581Z,99599.47
2023-04-15T07:12:45.871Z,99590.94
2023-04-15T07:15:13.725Z,99589.25
2023-04-15T07:17:43.329Z,99584.97
2023-04-15T07:20:12.949Z,99598.63
2023-04-15T07:22:41.354Z,99598.66
2023-04-15T07:25:10.209Z,99593.50
2023-04-15T07:27:39.435Z,99596.91
2023-04-15T07:30:09.196Z,99594.31
2023-04-15T07:32:37.688Z,99598.63
2023-04-15T07:35:06.209Z,99598.66
2023-04-15T07:37:34.092Z,99596.94
2023-04-15T07:40:02.012Z,99599.53
2023-04-15T07:42:30.621Z,99594.41
2023-04-15T07:44:59.852Z,99590.94
2023-04-15T07:47:28.266Z,99596.94
2023-04-15T07:49:56.093Z,99596.03
2023-04-15T07:52:23.920Z,99594.34
2023-04-15T07:54:51.825Z,99588.31
2023-04-15T07:57:20.036Z,99602.84
2023-04-15T07:59:47.844Z,99594.28
2023-04-15T08:02:17.130Z,99596.84
2023-04-15T08:04:45.276Z,99597.69
2023-04-15T08:07:13.268Z,99593.41
2023-04-15T08:09:41.375Z,99587.44
2023-04-15T08:12:12.501Z,99593.38
2023-04-15T08:14:40.711Z,99589.13
2023-04-15T08:17:08.888Z,99586.53
2023-04-15T08:19:38.299Z,99591.66
2023-04-15T08:22:06.715Z,99595.84
2023-04-15T08:24:43.046Z,99589.84
2023-04-15T08:27:10.921Z,99588.94
2023-04-15T08:29:40.751Z,99598.34
2023-04-15T08:32:08.836Z,99594.03
2023-04-15T08:34:38.453Z,99587.13
2023-04-15T08:37:06.562Z,99599.06
2023-04-15T08:39:34.443Z,99595.53
2023-04-15T08:42:03.584Z,99589.50
2023-04-15T08:44:34.494Z,99596.34
2023-04-15T08:47:03.606Z,99596.34
2023-04-15T08:49:31.777Z,99596.34
2023-04-15T08:52:01.598Z,99609.19
2023-04-15T08:54:29.716Z,99602.38
2023-04-15T08:56:59.828Z,99599.84
2023-04-15T08:59:27.780Z,99601.47
2023-04-15T09:01:56.824Z,99597.22
2023-04-15T09:04:24.713Z,99608.31
2023-04-15T09:06:53.472Z,99603.13
2023-04-15T09:09:22.771Z,99601.28
2023-04-15T09:11:51.621Z,99608.13
2023-04-15T09:14:19.553Z,99610.66
2023-04-15T09:17:02.014Z,99608.97
2023-04-15T09:19:30.600Z,99611.50
2023-04-15T09:21:59.830Z,99598.66
2023-04-15T09:24:38.523Z,99604.56
2023-04-15T09:27:07.439Z,99605.38
2023-04-15T09:29:35.354Z,99600.22
2023-04-15T09:32:14.034Z,99603.63
2023-04-15T09:34:42.048Z,99600.22
2023-04-15T09:37:11.048Z,99596.78
2023-04-15T09:39:51.163Z,99610.50
2023-04-15T09:42:24.447Z,99615.66
2023-04-15T09:44:53.063Z,99612.25
2023-04-15T09:47:30.628Z,99616.53
2023-04-15T09:49:59.078Z,99621.66
2023-04-15T09:52:27.478Z,99612.16
2023-04-15T09:54:58.167Z,99619.84
2023-04-15T09:57:26.186Z,99622.41
2023-04-15T09:59:54.333Z,99622.44
2023-04-15T10:02:22.551Z,99625.88
2023-04-15T10:04:50.990Z,99619.00
2023-04-15T10:07:22.568Z,99619.84
2023-04-15T10:09:51.140Z,99618.06
2023-04-15T10:12:21.255Z,99624.84
2023-04-15T10:14:53.846Z,99616.16
2023-04-15T10:17:24.037Z,99620.41
2023-04-15T10:19:55.585Z,99614.41
2023-04-15T10:22:24.250Z,99617.03
2023-04-15T10:24:53.823Z,99623.78
2023-04-15T10:27:23.694Z,99622.88
2023-04-15T10:29:52.407Z,99617.75
2023-04-15T10:32:22.485Z,99627.16
2023-04-15T10:34:54.190Z,99622.00
2023-04-15T10:37:23.847Z,99608.44
2023-04-15T10:39:51.969Z,99616.94
2023-04-15T10:42:22.721Z,99621.97
2023-04-15T10:44:51.993Z,99621.09
2023-04-15T10:47:21.640Z,99623.63
2023-04-15T10:49:51.623Z,99625.34
2023-04-15T10:52:24.542Z,99621.09
2023-04-15T10:55:04.589Z,99624.53
2023-04-15T10:57:40.261Z,99623.69
2023-04-15T11:00:13.982Z,99624.63
2023-04-15T11:02:44.116Z,99615.25
2023-04-15T11:05:13.119Z,99623.00
2023-04-15T11:07:53.049Z,99624.75
2023-04-15T11:10:53.990Z,99624.00
2023-04-15T11:13:27.225Z,99619.75
2023-04-15T11:15:59.364Z,99618.06
2023-04-15T11:18:30.488Z,99630.91
2023-04-15T11:21:00.324Z,99630.81
2023-04-15T11:23:34.181Z,99630.81
2023-04-15T11:26:03.434Z,99632.56
2023-04-15T11:28:33.754Z,99631.78
2023-04-15T11:31:08.575Z,99626.59
2023-04-15T11:33:36.528Z,99627.44
2023-04-15T11:36:04.735Z,99627.41
2023-04-15T11:38:32.716Z,99639.44
2023-04-15T11:41:00.878Z,99625.78
2023-04-15T11:43:29.035Z,99638.56
2023-04-15T11:46:00.464Z,99636.09
2023-04-15T11:48:30.135Z,99641.22
2023-04-15T11:51:00.480Z,99646.38
2023-04-15T11:53:39.328Z,99644.59
2023-04-15T11:56:08.960Z,99641.91
2023-04-15T11:58:39.276Z,99649.47
2023-04-15T12:01:08.987Z,99652.66
2023-04-15T12:03:41.559Z,99642.78
2023-04-15T12:06:16.653Z,99656.03
2023-04-15T12:09:02.229Z,99653.97
2023-04-15T12:11:33.320Z,99651.94
2023-04-15T12:14:05.638Z,99662.91
2023-04-15T12:16:48.041Z,99658.56
2023-04-15T12:19:19.357Z,99664.75
2023-04-15T12:21:49.010Z,99670.00
2023-04-15T12:24:16.799Z,99670.19
2023-04-15T12:26:46.672Z,99676.28
2023-04-15T12:29:16.377Z,99672.78
2023-04-15T12:31:53.637Z,99677.91
2023-04-15T12:34:29.553Z,99684.72
2023-04-15T12:36:59.007Z,99682.06
2023-04-15T12:39:30.495Z,99678.75
2023-04-15T12:41:59.410Z,99685.53
2023-04-15T12:44:28.030Z,99692.38
2023-04-15T12:46:57.856Z,99694.16
2023-04-15T12:49:26.016Z,99695.75
2023-04-15T12:51:55.999Z,99689.56
2023-04-15T12:54:24.621Z,99685.91
2023-04-15T12:56:54.253Z,99689.25
2023-04-15T12:59:23.895Z,99692.59
2023-04-15T13:01:53.662Z,99697.66
2023-04-15T13:04:23.635Z,99701.13
2023-04-15T13:06:51.851Z,99704.03
2023-04-15T13:09:19.720Z,99707.66
2023-04-15T13:11:47.674Z,99708.50
2023-04-15T13:14:15.871Z,99707.50
2023-04-15T13:16:43.637Z,99715.97
2023-04-15T13:19:11.587Z,99717.38
2023-04-15T13:21:41.091Z,99719.50
2023-04-15T13:24:09.738Z,99719.25
2023-04-15T13:26:37.987Z,99722.84
2023-04-15T13:29:05.955Z,99730.13
2023-04-15T13:31:33.797Z,99727.78
2023-04-15T13:34:02.036Z,99733.78
2023-04-15T13:36:30.019Z,99736.41
2023-04-15T13:39:00.018Z,99736.59
2023-04-15T13:41:27.946Z,99735.06
2023-04-15T13:43:55.833Z,99733.22
2023-04-15T13:46:23.792Z,99734.72
2023-04-15T13:48:51.640Z,99737.88
2023-04-15T13:51:19.462Z,99740.25
2023-04-15T13:53:47.416Z,99740.19
2023-04-15T13:56:16.717Z,99738.72
2023-04-15T13:58:44.597Z,99745.88
2023-04-15T14:01:12.600Z,99743.44
2023-04-15T14:03:40.793Z,99758.19
2023-04-15T14:06:08.841Z,99757.63
2023-04-15T14:08:36.706Z,99749.25
2023-04-15T14:11:04.533Z,99749.38
2023-04-15T14:13:33.867Z,99750.31
2023-04-15T14:16:01.793Z,99751.19
2023-04-15T14:18:30.663Z,99758.03
2023-04-15T14:20:58.536Z,99759.81
2023-04-15T14:23:26.400Z,99763.19
2023-04-15T14:25:54.737Z,99757.19
2023-04-15T14:28:22.573Z,99760.41
2023-04-15T14:30:51.985Z,99751.63
2023-04-15T14:33:19.959Z,99752.19
2023-04-15T14:35:48.199Z,99767.59
2023-04-15T14:38:19.057Z,99757.38
2023-04-15T14:40:47.012Z,99760.84
2023-04-15T14:43:14.993Z,99759.16
2023-04-15T14:45:44.608Z,99763.53
2023-04-15T14:48:15.188Z,99757.66
2023-04-15T14:50:45.967Z,99767.25
2023-04-15T14:53:14.182Z,99769.91
2023-04-15T14:55:42.351Z,99786.31
2023-04-15T14:58:10.304Z,99780.31
2023-04-15T15:00:42.175Z,99780.97
2023-04-15T15:03:13.730Z,99780.78
2023-04-15T15:05:43.953Z,99791.75
2023-04-15T15:08:12.730Z,99781.47
2023-04-15T15:10:48.163Z,99793.53
2023-04-15T15:13:16.908Z,99804.78
2023-04-15T15:15:45.072Z,99807.53
2023-04-15T15:18:13.155Z,99808.47
2023-04-15T15:20:41.260Z,99795.59
2023-04-15T15:23:10.620Z,99796.44
2023-04-15T15:25:38.611Z,99798.06
2023-04-15T15:28:07.169Z,99799.69
2023-04-15T15:30:35.071Z,99797.16
2023-04-15T15:33:08.194Z,99799.84
2023-04-15T15:35:36.386Z,99804.13
2023-04-15T15:38:04.396Z,99803.28
2023-04-15T15:40:33.802Z,99803.38
2023-04-15T15:43:01.715Z,99800.75
2023-04-15T15:45:29.600Z,99810.97
2023-04-15T15:48:00.658Z,99797.38
2023-04-15T15:50:28.811Z,99805.09
2023-04-15T15:52:58.748Z,99804.31
2023-04-15T15:55:27.329Z,99802.56
2023-04-15T15:57:56.680Z,99804.34
2023-04-15T16:00:24.562Z,99804.47
2023-04-15T16:03:06.716Z,99806.34
2023-04-15T16:05:37.943Z,99815.03
2023-04-15T16:08:06.303Z,99822.00
2023-04-15T16:10:37.649Z,99832.34
2023-04-15T16:13:11.918Z,99822.97
2023-04-15T16:15:40.043Z,99839.22
2023-04-15T16:18:16.011Z,99824.66
2023-04-15T16:20:44.086Z,99836.56
2023-04-15T16:23:14.843Z,99835.69
2023-04-15T16:25:43.748Z,99840.78
2023-04-15T16:28:25.789Z,99838.19
2023-04-15T16:30:55.112Z,99840.88
2023-04-15T16:33:23.128Z,99837.50
2023-04-15T16:35:52.773Z,99843.50
2023-04-15T16:38:20.882Z,99851.19
2023-04-15T16:40:48.830Z,99852.91
2023-04-15T16:43:18.441Z,99860.59
2023-04-15T16:45:50.891Z,99865.69
2023-04-15T16:48:19.285Z,99867.47
2023-04-15T16:50:47.516Z,99876.97
2023-04-15T16:53:16.075Z,99880.50
2023-04-15T16:55:43.973Z,99885.81
2023-04-15T16:58:11.814Z,99892.72
2023-04-15T17:00:41.078Z,99897.94
2023-04-15T17:03:09.104Z,99903.13
2023-04-15T17:05:37.120Z,99897.97
2023-04-15T17:08:05.530Z,99903.16
2023-04-15T17:10:33.470Z,99910.88
2023-04-15T17:13:01.342Z,99918.59
2023-04-15T17:15:29.229Z,99911.78
2023-04-15T17:17:58.392Z,99916.16
2023-04-15T17:20:26.606Z,99915.38
2023-04-15T17:22:54.555Z,99918.81
2023-04-15T17:25:22.464Z,99926.53
2023-04-15T17:27:50.356Z,99925.72
2023-04-15T17:30:18.190Z,99934.34
2023-04-15T17:32:46.152Z,99926.69
2023-04-15T17:35:15.446Z,99928.38
2023-04-15T17:37:43.310Z,99931.88
2023-04-15T17:40:12.244Z,99931.03
2023-04-15T17:42:40.300Z,99937.94
2023-04-15T17:45:09.252Z,99939.66
2023-04-15T17:47:37.168Z,99951.69
2023-04-15T17:50:05.469Z,99949.97
2023-04-15T17:52:34.973Z,99956.84
2023-04-15T17:55:03.546Z,99968.88
2023-04-15T17:57:31.435Z,99978.31
2023-04-15T17:59:59.419Z,99982.56
2023-04-15T18:02:27.425Z,99986.03
2023-04-15T18:04:55.527Z,99989.47
2023-04-15T18:07:23.512Z,99994.63
2023-04-15T18:12:23.695Z,99999.03
2023-04-15T18:14:51.510Z,99999.03
2023-04-15T18:17:20.342Z,100003.34
2023-04-15T18:19:48.324Z,100011.91
2023-04-15T18:22:16.130Z,100020.47
2023-04-15T18:24:43.987Z,100018.78
2023-04-15T18:27:13.182Z,100023.03
2023-04-15T18:29:40.972Z,100024.78
2023-04-15T18:32:08.875Z,100021.34
2023-04-15T18:34:36.902Z,100026.50
2023-04-15T18:37:05.415Z,100030.81
2023-04-15T18:39:33.256Z,100027.38
2023-04-15T18:42:01.954Z,100035.97
2023-04-15T18:44:31.355Z,100032.56
2023-04-15T18:46:59.278Z,100020.63
2023-04-15T18:49:27.460Z,100034.28
2023-04-15T18:51:55.715Z,100042.00
2023-04-15T18:54:23.694Z,100042.88
2023-04-15T18:56:52.231Z,100046.28
2023-04-15T18:59:29.319Z,100043.75
2023-04-15T19:02:00.469Z,100044.63
2023-04-15T19:04:29.760Z,100043.78
2023-04-15T19:06:58.945Z,100043.78
2023-04-15T19:09:27.316Z,100039.53
2023-04-15T19:11:56.944Z,100046.38
2023-04-15T19:14:24.940Z,100045.53
2023-04-15T19:16:52.909Z,100050.72
2023-04-15T19:19:22.297Z,100043.88
2023-04-15T19:21:50.422Z,100051.59
2023-04-15T19:24:18.899Z,100049.03
2023-04-15T19:26:49.561Z,100056.75
2023-04-15T19:29:17.666Z,100059.31
2023-04-15T19:31:45.564Z,100061.03
2023-04-15T19:34:13.626Z,100053.31
2023-04-15T19:36:43.218Z,100068.78
2023-04-15T19:39:11.474Z,100073.91
2023-04-15T19:41:39.395Z,100079.94
2023-04-15T19:44:07.322Z,100083.38
2023-04-15T19:46:35.289Z,100079.09
2023-04-15T19:49:03.590Z,100089.38
2023-04-15T19:51:31.894Z,100089.38
2023-04-15T19:54:01.062Z,100088.53
2023-04-15T19:56:29.364Z,100092.81
2023-04-15T19:58:57.233Z,100100.53
2023-04-15T20:01:25.299Z,100101.41
2023-04-15T20:03:54.202Z,100091.97
2023-04-15T20:06:22.672Z,100104.84
2023-04-15T20:08:50.842Z,100093.72
2023-04-15T20:11:20.269Z,100104.84
2023-04-15T20:13:48.140Z,100109.16
2023-04-15T20:16:16.075Z,100097.22
2023-04-15T20:18:43.866Z,100111.75
2023-04-15T20:21:11.717Z,100102.34
2023-04-15T20:23:39.655Z,100104.88
2023-04-15T20:26:07.540Z,100110.00
2023-04-15T20:28:36.783Z,100120.28
2023-04-15T20:31:04.889Z,100104.88
2023-04-15T20:33:32.694Z,100107.47
2023-04-15T20:36:00.541Z,100116.03
2023-04-15T20:38:28.442Z,100118.59
2023-04-15T20:40:57.878Z,100114.34
2023-04-15T20:43:26.181Z,100110.91
2023-04-15T20:45:58.801Z,100115.16
2023-04-15T20:48:30.012Z,100108.34
2023-04-15T20:50:57.823Z,100102.34
2023-04-15T20:53:25.774Z,100111.75
2023-04-15T20:55:53.561Z,100108.34
2023-04-15T20:58:21.502Z,100116.91
2023-04-15T21:00:50.784Z,100110.06
2023-04-15T21:03:20.187Z,100122.91
2023-04-15T21:05:48.180Z,100122.06
2023-04-15T21:08:16.149Z,100126.31
2023-04-15T21:10:44.153Z,100113.50
2023-04-15T21:13:13.189Z,100118.63
2023-04-15T21:15:41.555Z,100118.63
2023-04-15T21:18:09.423Z,100118.63
2023-04-15T21:20:38.592Z,100121.19
2023-04-15T21:23:06.459Z,100123.78
2023-04-15T21:25:34.369Z,100117.78
2023-04-15T21:28:03.672Z,100118.63
2023-04-15T21:30:31.653Z,100109.22
2023-04-15T21:32:59.426Z,100124.66
2023-04-15T21:35:28.684Z,100116.09
2023-04-15T21:37:58.074Z,100127.22
2023-04-15T21:40:25.978Z,100119.50
2023-04-15T21:42:53.989Z,100118.66
2023-04-15T21:45:21.871Z,100119.50
2023-04-15T21:47:57.150Z,100123.78
2023-04-15T21:50:36.652Z,100121.22
2023-04-15T21:53:08.315Z,100123.78
2023-04-15T21:55:36.575Z,100134.09
2023-04-15T21:58:04.531Z,100137.47
2023-04-15T22:00:32.461Z,100133.22
2023-04-15T22:03:00.581Z,100135.78
2023-04-15T22:05:28.564Z,100135.78
2023-04-15T22:07:58.283Z,100140.91
2023-04-15T22:10:28.714Z,100140.91
2023-04-15T22:12:57.068Z,100151.16
2023-04-15T22:15:24.958Z,100152.88
2023-04-15T22:17:52.925Z,100148.59
2023-04-15T22:20:20.859Z,100154.59
2023-04-15T22:22:48.708Z,100154.59
2023-04-15T22:25:22.421Z,100158.00
2023-04-15T22:27:51.715Z,100161.44
2023-04-15T22:30:19.515Z,100174.28
2023-04-15T22:32:47.428Z,100169.97
2023-04-15T22:35:15.444Z,100180.25
2023-04-15T22:37:43.340Z,100171.69
2023-04-15T22:40:12.204Z,100181.13
2023-04-15T22:42:40.094Z,100181.97
2023-04-15T22:45:10.640Z,100182.84
2023-04-15T22:47:38.469Z,100187.97
2023-04-15T22:50:07.625Z,100185.41
2023-04-15T22:52:35.587Z,100188.81
2023-04-15T22:55:04.007Z,100190.53
2023-04-15T22:57:31.837Z,100196.53
2023-04-15T22:59:59.836Z,100181.09
2023-04-15T23:02:29.191Z,100187.97
2023-04-15T23:04:57.813Z,100174.25
2023-04-15T23:07:25.784Z,100194.78
2023-04-15T23:09:53.619Z,100183.69
2023-04-15T23:12:21.590Z,100191.38
2023-04-15T23:14:49.378Z,100191.38
2023-04-15T23:17:17.257Z,100180.25
2023-04-15T23:19:46.457Z,100184.53
2023-04-15T23:22:14.295Z,100197.38
2023-04-15T23:24:42.228Z,100184.53
2023-04-15T23:27:10.103Z,100183.66
2023-04-15T23:29:37.892Z,100196.50
2023-04-15T23:32:06.257Z,100197.34
2023-04-15T23:34:34.166Z,100194.81
2023-04-15T23:37:03.307Z,100193.94
2023-04-15T23:39:31.326Z,100193.94
2023-04-15T23:41:59.212Z,100191.38
2023-04-15T23:44:27.175Z,100192.25
2023-04-15T23:46:55.140Z,100197.38
2023-04-15T23:49:23.038Z,100192.25
2023-04-15T23:51:51.101Z,100198.22
2023-04-15T23:54:20.386Z,100199.09
2023-04-15T23:56:48.283Z,100187.97
2023-04-15T23:59:16.251Z,100199.94
